Terminal Aerodrome Forecast
Issued by NWS Sterling, VA

Current Version | Previous Version | Text Only | Print | Product List | Glossary Off
Versions: 1 2 3 4 5 6 7 8 9 10 11 12 13 14 15 16 17 18 19 20 21 22 23 24 25

000
FTUS41 KLWX 281738
TAFDCA
TAF
KDCA 281738Z 2818/0118 18007KT P6SM BKN100
     FM282100 18008KT 6SM -SHRA OVC070
     FM010000 18007KT 4SM -SHRA BR OVC040
     FM010600 20009KT 6SM BR BKN060 OVC180
     FM011400 21013G23KT P6SM OVC070=

USA.gov is the U.S. government's official web portal to all federal, state and local government web resources and services.